Time;durP1;ratioP1;P1;durP2;ratioP2;P2;SDS_P1;SDS_P2;PMS_P1;PMS_P2;Temp;Humidity;BMP_temperature;BMP_pressure;BME280_temperature;BME280_humidity;BME280_pressure;Samples;Min_cycle;Max_cycle;Signal;HPM_P1;HPM_P2
2023/04/12 00:01:29;;;;;;;17.08;6.05;;;4.90;99.90;;;;;;5032554;28;20029;-74
2023/04/12 00:03:55;;;;;;;18.48;5.75;;;4.90;99.90;;;;;;5034371;28;20021;-73
2023/04/12 00:06:26;;;;;;;16.10;5.57;;;4.90;99.90;;;;;;5033722;28;20026;-74
2023/04/12 00:08:52;;;;;;;12.85;5.30;;;4.80;99.90;;;;;;5034021;28;20116;-73
2023/04/12 00:11:17;;;;;;;11.23;5.07;;;4.80;99.90;;;;;;5032437;28;20030;-73
2023/04/12 00:13:43;;;;;;;12.15;5.38;;;4.80;99.90;;;;;;5033382;28;20051;-75
2023/04/12 00:16:08;;;;;;;16.42;5.90;;;4.80;99.90;;;;;;5031733;28;20029;-72
2023/04/12 00:18:34;;;;;;;16.77;5.50;;;4.80;99.90;;;;;;5033398;28;20036;-73
2023/04/12 00:20:59;;;;;;;14.18;5.57;;;4.80;99.90;;;;;;5033825;28;20022;-73
2023/04/12 00:23:25;;;;;;;13.93;5.18;;;4.80;99.90;;;;;;5033378;28;20018;-72
2023/04/12 00:25:51;;;;;;;15.27;5.53;;;4.80;99.90;;;;;;5033964;28;20336;-73
2023/04/12 00:28:16;;;;;;;14.82;5.13;;;4.80;99.90;;;;;;5033827;28;20024;-71
2023/04/12 00:30:42;;;;;;;12.40;5.70;;;4.80;99.90;;;;;;5032058;28;20030;-72
2023/04/12 00:33:08;;;;;;;16.40;6.05;;;4.80;99.90;;;;;;5033366;28;20033;-72
2023/04/12 00:35:33;;;;;;;18.95;4.80;;;4.80;99.90;;;;;;5031841;28;20056;-73
2023/04/12 00:38:01;;;;;;;10.25;5.28;;;4.70;99.90;;;;;;5033395;28;20025;-73
2023/04/12 00:40:27;;;;;;;11.77;4.93;;;4.80;99.90;;;;;;5031837;28;20021;-72
2023/04/12 00:42:52;;;;;;;13.35;5.38;;;4.80;99.90;;;;;;5033147;28;20053;-73
2023/04/12 00:45:18;;;;;;;15.63;5.57;;;4.80;99.90;;;;;;5033554;28;20061;-72
2023/04/12 00:47:43;;;;;;;16.65;4.95;;;4.70;99.90;;;;;;5030846;28;20022;-72
2023/04/12 00:50:10;;;;;;;10.73;4.65;;;4.70;99.90;;;;;;5033220;28;20021;-72
2023/04/12 00:52:36;;;;;;;12.10;5.07;;;4.70;99.90;;;;;;5033187;28;20441;-72
2023/04/12 00:55:06;;;;;;;9.38;4.18;;;4.70;99.90;;;;;;5031235;28;20022;-73
2023/04/12 00:57:37;;;;;;;9.35;4.57;;;4.70;99.90;;;;;;5032631;28;20036;-72
2023/04/12 01:00:11;;;;;;;18.20;5.03;;;4.70;99.90;;;;;;5031173;28;20033;-73
2023/04/12 01:02:41;;;;;;;7.80;4.30;;;4.70;99.90;;;;;;5033190;28;20068;-72
2023/04/12 01:05:08;;;;;;;15.30;5.07;;;4.70;99.90;;;;;;5032673;28;20017;-72
2023/04/12 01:08:03;;;;;;;11.10;4.22;;;4.70;99.90;;;;;;5032600;28;20038;-73
2023/04/12 01:11:07;;;;;;;12.82;4.65;;;4.80;99.90;;;;;;5032794;28;20092;-72
2023/04/12 01:13:44;;;;;;;11.32;4.40;;;4.80;99.90;;;;;;5030946;28;20038;-74
2023/04/12 01:16:14;;;;;;;9.45;4.22;;;4.80;99.90;;;;;;5030249;28;20040;-72
2023/04/12 01:18:44;;;;;;;8.60;4.10;;;4.80;99.90;;;;;;5029856;28;20037;-72
2023/04/12 01:21:15;;;;;;;10.02;4.50;;;4.80;99.90;;;;;;5029277;28;20037;-72
2023/04/12 01:24:05;;;;;;;12.60;4.50;;;4.90;99.90;;;;;;5030453;28;20669;-74
2023/04/12 01:26:33;;;;;;;14.27;4.05;;;4.90;99.90;;;;;;5031723;28;20025;-74
2023/04/12 01:29:08;;;;;;;11.38;4.05;;;4.90;99.90;;;;;;5028697;28;20081;-73
2023/04/12 01:31:35;;;;;;;17.98;5.32;;;4.90;99.90;;;;;;5030787;28;20026;-72
2023/04/12 01:34:03;;;;;;;13.90;4.40;;;4.90;99.90;;;;;;5029902;28;20033;-73
2023/04/12 01:36:30;;;;;;;12.82;4.43;;;4.90;99.90;;;;;;5030786;28;20036;-72
2023/04/12 01:38:56;;;;;;;9.75;4.53;;;5.00;99.90;;;;;;5030748;28;20037;-72
2023/04/12 01:41:22;;;;;;;15.15;4.20;;;4.90;99.90;;;;;;5030338;28;20023;-73
2023/04/12 01:43:48;;;;;;;10.32;4.60;;;4.90;99.90;;;;;;5028826;28;20056;-73
2023/04/12 01:46:15;;;;;;;15.10;5.38;;;5.00;99.90;;;;;;5029494;28;20554;-73
2023/04/12 01:48:48;;;;;;;9.10;4.30;;;4.90;99.90;;;;;;5029380;28;20162;-73
2023/04/12 01:51:36;;;;;;;11.65;4.65;;;4.90;99.90;;;;;;5030409;28;20038;-73
2023/04/12 01:54:12;;;;;;;11.70;4.93;;;5.00;99.90;;;;;;5029776;28;20044;-73
2023/04/12 01:56:45;;;;;;;22.52;5.13;;;5.00;99.90;;;;;;5027941;28;20034;-73
2023/04/12 01:59:14;;;;;;;15.37;4.07;;;5.00;99.90;;;;;;5029751;28;20017;-72
2023/04/12 02:01:40;;;;;;;14.88;4.75;;;5.00;99.90;;;;;;5030254;28;20249;-72
2023/04/12 02:04:08;;;;;;;8.68;4.20;;;5.00;99.90;;;;;;5030614;28;20030;-73
2023/04/12 02:06:34;;;;;;;15.38;4.28;;;5.00;99.90;;;;;;5028420;28;20546;-72
2023/04/12 02:09:01;;;;;;;14.07;4.63;;;5.00;99.90;;;;;;5029490;28;20068;-73
2023/04/12 02:11:27;;;;;;;11.95;4.50;;;5.00;99.90;;;;;;5028637;28;20049;-73
2023/04/12 02:13:53;;;;;;;11.70;4.20;;;5.00;99.90;;;;;;5028731;28;20061;-72
2023/04/12 02:16:19;;;;;;;9.63;3.90;;;4.90;99.90;;;;;;5029807;28;20475;-72
2023/04/12 02:18:57;;;;;;;8.23;4.05;;;5.00;99.90;;;;;;5030173;28;20033;-72
2023/04/12 02:21:23;;;;;;;17.42;4.40;;;5.10;99.90;;;;;;5030735;28;20022;-74
2023/04/12 02:23:49;;;;;;;11.82;4.22;;;5.00;99.90;;;;;;5027437;28;20052;-72
2023/04/12 02:26:15;;;;;;;14.00;3.88;;;5.00;99.90;;;;;;5030079;28;20026;-73
2023/04/12 02:28:43;;;;;;;11.52;3.88;;;5.00;99.90;;;;;;5029882;28;20044;-73
2023/04/12 02:31:08;;;;;;;10.23;4.28;;;5.00;99.90;;;;;;5030103;28;20030;-73
2023/04/12 02:33:34;;;;;;;10.63;3.88;;;5.00;99.90;;;;;;5029957;28;20044;-72
2023/04/12 02:36:03;;;;;;;19.13;4.03;;;5.00;99.90;;;;;;5028344;28;20057;-73
2023/04/12 02:38:30;;;;;;;8.90;3.75;;;5.00;99.90;;;;;;5029586;28;20021;-73
2023/04/12 02:40:55;;;;;;;14.27;3.60;;;5.00;99.90;;;;;;5034160;28;20048;-72
2023/04/12 02:43:21;;;;;;;10.15;3.95;;;4.90;99.90;;;;;;5033170;28;20029;-73
2023/04/12 02:45:47;;;;;;;9.52;3.47;;;4.90;99.90;;;;;;5034209;28;20487;-72
2023/04/12 02:48:12;;;;;;;14.43;3.65;;;4.90;99.90;;;;;;5033774;28;20030;-73
2023/04/12 02:50:38;;;;;;;12.27;4.13;;;4.90;99.90;;;;;;5033127;28;20026;-73
2023/04/12 02:53:04;;;;;;;12.40;4.53;;;5.00;99.90;;;;;;5033850;28;20056;-71
2023/04/12 02:55:29;;;;;;;13.60;4.00;;;4.90;99.90;;;;;;5033366;28;20025;-73
2023/04/12 02:57:56;;;;;;;10.57;4.00;;;5.00;99.90;;;;;;5033795;28;20102;-72
2023/04/12 03:00:22;;;;;;;10.93;4.38;;;5.10;99.90;;;;;;5034735;28;20617;-72
2023/04/12 03:02:51;;;;;;;9.85;4.05;;;5.00;99.90;;;;;;5033571;28;20542;-73
2023/04/12 03:05:17;;;;;;;8.25;3.97;;;5.00;99.90;;;;;;5034295;28;20048;-72
2023/04/12 03:07:43;;;;;;;11.07;4.32;;;5.00;99.90;;;;;;5034658;28;20021;-72
2023/04/12 03:10:12;;;;;;;12.40;4.20;;;5.10;99.90;;;;;;5034894;28;20076;-73
2023/04/12 03:12:38;;;;;;;14.93;4.40;;;5.10;99.90;;;;;;5035157;28;20041;-73
2023/04/12 03:15:04;;;;;;;14.18;4.07;;;5.10;99.90;;;;;;5034624;28;20101;-73
2023/04/12 03:17:29;;;;;;;10.45;3.72;;;5.10;99.90;;;;;;5034465;28;20067;-71
2023/04/12 03:20:02;;;;;;;10.60;3.90;;;5.10;99.90;;;;;;5035258;28;20025;-75
2023/04/12 03:22:27;;;;;;;11.15;3.85;;;5.20;99.90;;;;;;5034742;28;20479;-72
2023/04/12 03:24:54;;;;;;;14.40;3.47;;;5.20;99.90;;;;;;5033093;28;20053;-71
2023/04/12 03:27:19;;;;;;;12.80;4.55;;;5.10;99.90;;;;;;5035068;28;20034;-72
2023/04/12 03:29:45;;;;;;;11.15;3.60;;;5.10;99.90;;;;;;5034944;28;20647;-72
2023/04/12 03:32:11;;;;;;;11.35;4.50;;;5.10;99.90;;;;;;5033890;28;20033;-73
2023/04/12 03:34:36;;;;;;;10.30;3.65;;;5.10;99.90;;;;;;5034557;28;20033;-73
2023/04/12 03:37:02;;;;;;;15.00;3.75;;;5.10;99.90;;;;;;5034724;28;20033;-73
2023/04/12 03:39:28;;;;;;;20.27;3.80;;;5.20;99.90;;;;;;5034336;28;20033;-72
2023/04/12 03:41:54;;;;;;;8.10;3.22;;;5.20;99.90;;;;;;5033660;28;20018;-73
2023/04/12 03:44:20;;;;;;;17.13;3.53;;;5.20;99.90;;;;;;5034990;28;20022;-74
2023/04/12 03:46:47;;;;;;;10.82;3.88;;;5.20;99.90;;;;;;5034220;28;20056;-73
2023/04/12 03:49:12;;;;;;;12.10;3.85;;;5.30;99.90;;;;;;5033349;28;20053;-73
2023/04/12 03:51:41;;;;;;;8.38;3.30;;;5.10;99.90;;;;;;5033114;28;20474;-75
2023/04/12 03:54:11;;;;;;;11.15;3.80;;;5.20;99.90;;;;;;5034105;28;20060;-73
2023/04/12 03:56:37;;;;;;;9.45;3.55;;;5.10;99.90;;;;;;5034616;28;20067;-72
2023/04/12 03:59:06;;;;;;;10.18;3.90;;;5.10;99.90;;;;;;5031869;28;20030;-72
2023/04/12 04:01:33;;;;;;;13.18;4.60;;;5.20;99.90;;;;;;5032686;28;20037;-74
2023/04/12 04:03:59;;;;;;;9.93;3.83;;;5.20;99.90;;;;;;5034008;28;20033;-74
2023/04/12 04:06:25;;;;;;;13.15;4.40;;;5.20;99.90;;;;;;5033059;28;20030;-73
2023/04/12 04:08:51;;;;;;;9.55;4.32;;;5.20;99.90;;;;;;5033004;28;20057;-73
2023/04/12 04:11:17;;;;;;;12.63;3.83;;;5.20;99.90;;;;;;5034377;28;20505;-74
2023/04/12 04:13:42;;;;;;;14.60;4.85;;;5.20;99.90;;;;;;5033608;28;20080;-72
2023/04/12 04:16:09;;;;;;;8.00;2.72;;;5.10;99.90;;;;;;5033751;28;20025;-73
2023/04/12 04:18:35;;;;;;;13.82;3.95;;;5.10;99.90;;;;;;5033572;28;20032;-72
2023/04/12 04:21:00;;;;;;;12.27;4.25;;;5.10;99.90;;;;;;5032046;28;20021;-72
2023/04/12 04:23:27;;;;;;;14.13;5.13;;;5.10;99.90;;;;;;5034101;28;20026;-73
2023/04/12 04:25:54;;;;;;;15.75;4.65;;;5.10;99.90;;;;;;5034079;28;20026;-73
2023/04/12 04:28:19;;;;;;;17.70;5.95;;;5.10;99.90;;;;;;5033156;28;20029;-72
2023/04/12 04:30:45;;;;;;;13.07;4.78;;;5.10;99.90;;;;;;5033589;28;20021;-75
2023/04/12 04:33:11;;;;;;;15.10;5.50;;;5.10;99.90;;;;;;5032886;28;20524;-71
2023/04/12 04:35:44;;;;;;;16.90;6.10;;;5.00;99.90;;;;;;5032368;28;20025;-70
2023/04/12 04:38:09;;;;;;;10.38;4.88;;;5.10;99.90;;;;;;5031902;28;20116;-70
2023/04/12 04:40:38;;;;;;;16.90;5.80;;;5.00;99.90;;;;;;5033351;28;20502;-70
2023/04/12 04:43:03;;;;;;;17.73;6.60;;;5.00;99.90;;;;;;5032383;28;20090;-70
2023/04/12 04:45:31;;;;;;;18.77;7.53;;;5.00;99.90;;;;;;5032890;28;20067;-70
2023/04/12 04:47:57;;;;;;;20.75;7.43;;;5.00;99.90;;;;;;5032493;28;20025;-70
2023/04/12 04:50:25;;;;;;;17.33;5.32;;;5.00;99.90;;;;;;5031988;28;20040;-70
2023/04/12 04:52:51;;;;;;;23.23;6.75;;;5.00;99.90;;;;;;5048592;28;20038;-69
2023/04/12 04:55:17;;;;;;;14.80;6.70;;;5.00;99.90;;;;;;5033388;28;20029;-70
2023/04/12 04:57:43;;;;;;;17.52;6.78;;;5.00;99.90;;;;;;5032402;28;20080;-69
2023/04/12 05:00:10;;;;;;;16.40;5.85;;;5.00;99.90;;;;;;5033005;28;20021;-70
2023/04/12 05:02:42;;;;;;;16.33;6.50;;;5.00;99.90;;;;;;5031996;28;20022;-70
2023/04/12 05:05:16;;;;;;;19.88;7.18;;;5.00;99.90;;;;;;5032325;28;20086;-70
2023/04/12 05:07:42;;;;;;;15.25;6.07;;;5.00;99.90;;;;;;5028794;28;20542;-71
2023/04/12 05:10:09;;;;;;;20.73;6.72;;;5.00;99.90;;;;;;5031676;28;20045;-71
2023/04/12 05:12:35;;;;;;;19.30;5.70;;;5.00;99.90;;;;;;5032428;28;20018;-70
2023/04/12 05:15:01;;;;;;;16.63;6.13;;;5.20;99.90;;;;;;5030479;28;20052;-71
2023/04/12 05:17:27;;;;;;;12.95;5.75;;;5.10;99.90;;;;;;5032492;28;20026;-70
2023/04/12 05:19:53;;;;;;;19.42;7.03;;;5.10;99.90;;;;;;5032880;28;20036;-70
2023/04/12 05:22:21;;;;;;;11.48;5.20;;;5.20;99.90;;;;;;5030675;28;20036;-71
2023/04/12 05:24:48;;;;;;;16.73;6.35;;;5.20;99.90;;;;;;5031921;28;20025;-70
2023/04/12 05:27:15;;;;;;;16.17;6.03;;;5.30;99.90;;;;;;5032745;28;20704;-71
2023/04/12 05:29:43;;;;;;;14.60;6.47;;;5.30;99.90;;;;;;5032175;28;20082;-70
2023/04/12 05:32:10;;;;;;;13.98;4.47;;;5.40;99.90;;;;;;5031217;28;20029;-71
2023/04/12 05:34:36;;;;;;;21.08;6.60;;;5.60;99.90;;;;;;5032407;28;20101;-72
2023/04/12 05:37:02;;;;;;;19.38;6.53;;;5.50;99.90;;;;;;5032565;28;20032;-70
2023/04/12 05:39:28;;;;;;;19.40;6.88;;;5.50;99.90;;;;;;5032261;28;20740;-70
2023/04/12 05:41:54;;;;;;;10.15;4.60;;;5.50;99.90;;;;;;5031503;28;20081;-70
2023/04/12 05:44:20;;;;;;;13.27;5.57;;;5.60;99.90;;;;;;5029244;28;20116;-73
2023/04/12 05:46:45;;;;;;;14.40;4.63;;;5.60;99.90;;;;;;5030419;28;20409;-71
2023/04/12 05:49:11;;;;;;;14.20;4.70;;;5.70;99.90;;;;;;5030875;28;20085;-71
2023/04/12 05:51:37;;;;;;;15.75;6.25;;;5.60;99.90;;;;;;5030817;28;20033;-72
2023/04/12 05:54:05;;;;;;;16.17;6.45;;;5.70;99.90;;;;;;5030402;28;20045;-71
2023/04/12 05:56:31;;;;;;;14.20;5.40;;;5.80;99.90;;;;;;5030755;28;20091;-71
2023/04/12 05:58:57;;;;;;;12.50;5.50;;;5.90;99.90;;;;;;5031916;28;20057;-70
2023/04/12 06:01:29;;;;;;;29.70;5.50;;;5.90;99.90;;;;;;5032240;28;20026;-71
2023/04/12 06:03:55;;;;;;;16.63;5.78;;;5.90;99.90;;;;;;5032266;28;20475;-72
2023/04/12 06:06:21;;;;;;;12.02;4.68;;;5.90;99.90;;;;;;5031822;28;20045;-71
2023/04/12 06:08:46;;;;;;;12.60;4.57;;;5.90;99.90;;;;;;5030543;28;20505;-72
2023/04/12 06:11:12;;;;;;;17.48;5.28;;;5.90;99.90;;;;;;5030033;28;20064;-70
2023/04/12 06:13:38;;;;;;;15.40;6.05;;;6.00;99.90;;;;;;5032911;28;20040;-71
2023/04/12 06:16:04;;;;;;;16.17;5.10;;;6.00;99.90;;;;;;5037165;28;20224;-72
2023/04/12 06:18:30;;;;;;;15.73;5.38;;;6.00;99.90;;;;;;5038370;28;20024;-70
2023/04/12 06:20:56;;;;;;;10.48;3.40;;;6.10;99.90;;;;;;5038803;28;20021;-73
2023/04/12 06:23:22;;;;;;;13.82;4.90;;;6.10;99.90;;;;;;5035770;28;20025;-71
2023/04/12 06:25:49;;;;;;;15.98;5.50;;;6.10;99.90;;;;;;5038293;28;20030;-71
2023/04/12 06:28:15;;;;;;;14.65;4.50;;;6.20;99.90;;;;;;5037641;28;20028;-72
2023/04/12 06:30:42;;;;;;;12.40;4.38;;;6.20;99.90;;;;;;5038330;28;20058;-71
2023/04/12 06:33:07;;;;;;;10.65;4.25;;;6.20;99.90;;;;;;5036357;28;20061;-72
2023/04/12 06:35:33;;;;;;;14.13;4.53;;;6.20;99.90;;;;;;5036883;28;20021;-70
2023/04/12 06:37:58;;;;;;;10.43;4.45;;;6.20;99.90;;;;;;5037779;28;20026;-72
2023/04/12 06:40:24;;;;;;;7.65;3.38;;;6.30;99.90;;;;;;5037840;28;20029;-71
2023/04/12 06:42:50;;;;;;;11.80;4.07;;;6.30;99.90;;;;;;5037303;28;20057;-72
2023/04/12 06:45:15;;;;;;;11.98;3.63;;;6.30;99.90;;;;;;5033969;28;20029;-69
2023/04/12 06:47:41;;;;;;;8.40;2.80;;;6.40;99.90;;;;;;5035443;28;20025;-70
2023/04/12 06:50:07;;;;;;;7.30;3.40;;;6.40;99.90;;;;;;5037302;28;20021;-71
2023/04/12 06:52:33;;;;;;;10.50;4.45;;;6.40;99.90;;;;;;5038114;28;20029;-72
2023/04/12 06:54:58;;;;;;;13.00;4.60;;;6.40;99.90;;;;;;5036912;28;20025;-71
2023/04/12 06:57:24;;;;;;;11.63;3.95;;;6.50;99.90;;;;;;5038153;28;20033;-71
2023/04/12 06:59:50;;;;;;;14.65;4.68;;;6.50;99.90;;;;;;5036423;28;20024;-73
2023/04/12 07:02:16;;;;;;;12.93;4.53;;;6.60;99.90;;;;;;5037299;28;20036;-71
2023/04/12 07:04:41;;;;;;;11.43;4.25;;;6.60;99.90;;;;;;5037947;28;20486;-71
2023/04/12 07:07:07;;;;;;;5.78;2.65;;;6.70;99.90;;;;;;5038210;28;20061;-71
2023/04/12 07:09:32;;;;;;;10.77;3.72;;;6.70;99.90;;;;;;5033956;28;20080;-71
2023/04/12 07:11:59;;;;;;;10.63;3.20;;;6.80;99.90;;;;;;5036273;28;20034;-72
2023/04/12 07:14:25;;;;;;;11.05;3.85;;;6.80;99.90;;;;;;5037956;28;20231;-72
2023/04/12 07:16:50;;;;;;;10.85;3.75;;;6.80;99.90;;;;;;5037599;28;20018;-72
2023/04/12 07:19:16;;;;;;;9.50;4.07;;;6.90;99.90;;;;;;5035121;28;20048;-73
2023/04/12 07:21:41;;;;;;;9.85;4.13;;;7.00;99.90;;;;;;5036995;28;20437;-72
2023/04/12 07:24:07;;;;;;;11.30;3.70;;;7.00;99.90;;;;;;5037770;28;20117;-72
2023/04/12 07:26:33;;;;;;;10.98;2.53;;;7.10;99.90;;;;;;5033938;28;20064;-70
2023/04/12 07:28:59;;;;;;;11.45;3.70;;;7.10;99.90;;;;;;5034193;28;20048;-73
2023/04/12 07:31:24;;;;;;;9.07;3.85;;;7.10;99.90;;;;;;5034181;28;20105;-72
2023/04/12 07:33:50;;;;;;;7.45;3.40;;;7.20;99.90;;;;;;5033306;28;20096;-73
2023/04/12 07:36:19;;;;;;;10.38;3.47;;;7.30;99.90;;;;;;5033626;28;21353;-71
2023/04/12 07:38:45;;;;;;;13.50;4.13;;;7.40;99.90;;;;;;5034774;28;20112;-67
2023/04/12 07:41:10;;;;;;;7.65;2.60;;;7.50;99.90;;;;;;5030442;28;20627;-72
2023/04/12 07:43:36;;;;;;;6.55;2.65;;;7.60;99.90;;;;;;5033857;28;20025;-71
2023/04/12 07:46:06;;;;;;;8.60;3.17;;;7.70;99.90;;;;;;5033557;28;20040;-71
2023/04/12 07:48:34;;;;;;;9.32;3.35;;;7.90;99.90;;;;;;5033771;28;20045;-73
2023/04/12 07:51:00;;;;;;;9.60;2.45;;;8.10;99.90;;;;;;5033925;28;20014;-72
2023/04/12 07:53:27;;;;;;;6.38;2.55;;;8.20;99.90;;;;;;5031546;28;20033;-72
2023/04/12 07:55:54;;;;;;;5.18;2.08;;;8.30;99.90;;;;;;5033589;28;20075;-71
2023/04/12 07:58:21;;;;;;;10.52;3.25;;;8.30;99.90;;;;;;5032437;28;20030;-70
2023/04/12 08:00:47;;;;;;;8.05;2.55;;;8.30;99.90;;;;;;5032780;28;20512;-73
2023/04/12 08:03:14;;;;;;;6.65;2.40;;;8.30;99.90;;;;;;5030662;28;20086;-73
2023/04/12 08:05:40;;;;;;;11.50;3.92;;;8.30;99.90;;;;;;5031451;28;20026;-70
2023/04/12 08:08:08;;;;;;;10.43;3.50;;;8.30;99.90;;;;;;5034235;28;20026;-69
2023/04/12 08:10:36;;;;;;;10.18;2.95;;;8.30;99.90;;;;;;5033744;28;20029;-70
2023/04/12 08:13:02;;;;;;;10.35;3.50;;;8.40;99.90;;;;;;5032379;28;20083;-70
2023/04/12 08:15:28;;;;;;;11.45;3.55;;;8.40;99.90;;;;;;5030285;28;20036;-71
2023/04/12 08:17:53;;;;;;;10.90;3.05;;;8.50;99.90;;;;;;5031546;28;20038;-72
2023/04/12 08:20:19;;;;;;;10.55;2.72;;;8.50;99.90;;;;;;5031571;28;20018;-71
2023/04/12 08:22:45;;;;;;;15.23;3.72;;;8.50;99.90;;;;;;5032130;28;20030;-70
2023/04/12 08:25:11;;;;;;;9.25;2.92;;;8.50;99.90;;;;;;5031570;28;20017;-70
2023/04/12 08:27:40;;;;;;;10.27;3.20;;;8.50;99.90;;;;;;5030890;28;20048;-72
2023/04/12 08:30:07;;;;;;;9.27;3.30;;;8.50;99.90;;;;;;5032961;28;20616;-71
2023/04/12 08:32:33;;;;;;;9.43;3.42;;;8.50;99.90;;;;;;5032979;28;20017;-72
2023/04/12 08:34:59;;;;;;;9.20;3.42;;;8.50;99.90;;;;;;5032670;28;20025;-72
2023/04/12 08:37:24;;;;;;;6.95;3.38;;;8.50;99.90;;;;;;5028128;28;20022;-71
2023/04/12 08:39:50;;;;;;;5.75;2.70;;;8.60;99.90;;;;;;5030593;28;20048;-71
2023/04/12 08:42:16;;;;;;;13.77;2.88;;;8.60;99.90;;;;;;5032903;28;20033;-72
2023/04/12 08:44:42;;;;;;;15.40;4.35;;;8.60;99.90;;;;;;5030838;28;20538;-71
2023/04/12 08:47:09;;;;;;;8.95;3.78;;;8.60;99.90;;;;;;5031595;28;20064;-71
2023/04/12 08:49:35;;;;;;;6.60;3.38;;;8.60;99.90;;;;;;5032093;28;20081;-70
2023/04/12 08:52:08;;;;;;;9.18;2.90;;;8.60;99.90;;;;;;5029794;28;20030;-73
2023/04/12 08:54:34;;;;;;;8.65;2.58;;;8.60;99.90;;;;;;5027810;28;20042;-73
2023/04/12 08:57:05;;;;;;;10.70;4.05;;;8.60;99.90;;;;;;5026249;28;20567;-71
2023/04/12 08:59:32;;;;;;;14.68;4.78;;;8.60;99.90;;;;;;5029503;28;20117;-70
2023/04/12 09:01:58;;;;;;;11.57;4.35;;;8.60;99.90;;;;;;5029662;28;20044;-71
2023/04/12 09:04:25;;;;;;;11.88;4.28;;;8.60;99.90;;;;;;5031516;28;20029;-69
2023/04/12 09:06:51;;;;;;;13.40;3.85;;;8.60;99.90;;;;;;5031730;28;20033;-70
2023/04/12 09:09:16;;;;;;;12.80;4.15;;;8.60;99.90;;;;;;5029878;28;20164;-70
2023/04/12 09:11:42;;;;;;;11.13;3.97;;;8.60;99.90;;;;;;5032005;28;20069;-70
2023/04/12 09:14:22;;;;;;;12.40;4.53;;;8.60;99.90;;;;;;5031419;28;20069;-71
2023/04/12 09:16:48;;;;;;;7.28;3.53;;;8.60;99.90;;;;;;5029003;28;20069;-69
2023/04/12 09:19:14;;;;;;;5.70;2.58;;;8.50;99.90;;;;;;5029553;28;20040;-70
2023/04/12 09:21:53;;;;;;;12.95;4.80;;;8.50;99.90;;;;;;5027745;28;20045;-71
2023/04/12 09:24:22;;;;;;;11.18;4.45;;;8.50;99.90;;;;;;5023999;28;20030;-72
2023/04/12 09:27:04;;;;;;;10.50;4.00;;;8.50;99.90;;;;;;5027905;28;20025;-70
2023/04/12 09:29:31;;;;;;;13.02;5.53;;;8.50;99.90;;;;;;5030585;28;20025;-70
2023/04/12 09:32:05;;;;;;;10.45;4.63;;;8.50;99.90;;;;;;5029097;28;20032;-72
2023/04/12 09:34:31;;;;;;;15.68;4.70;;;8.50;99.90;;;;;;5030920;28;20025;-71
2023/04/12 09:36:58;;;;;;;16.25;5.07;;;8.50;99.90;;;;;;5029507;28;20089;-72
2023/04/12 09:39:31;;;;;;;11.52;4.60;;;8.50;99.90;;;;;;5028093;28;20032;-73
2023/04/12 09:42:05;;;;;;;14.85;4.80;;;8.50;99.90;;;;;;5024898;28;20057;-72
2023/04/12 09:44:30;;;;;;;16.93;5.33;;;8.50;99.90;;;;;;5028098;28;20578;-73
2023/04/12 09:46:57;;;;;;;14.30;4.78;;;8.50;99.90;;;;;;5024956;28;20061;-72
2023/04/12 09:49:40;;;;;;;12.02;5.43;;;8.50;99.90;;;;;;5019751;28;20037;-72
2023/04/12 09:52:07;;;;;;;17.88;4.93;;;8.40;99.90;;;;;;5030540;28;20030;-71
2023/04/12 09:54:37;;;;;;;14.07;5.45;;;8.40;99.90;;;;;;5030149;28;20038;-70
2023/04/12 09:57:06;;;;;;;5.13;2.75;;;8.30;99.90;;;;;;5031028;28;20057;-72
2023/04/12 09:59:39;;;;;;;11.00;3.88;;;8.30;99.90;;;;;;5028480;28;20093;-72
2023/04/12 10:02:17;;;;;;;10.80;4.63;;;8.30;99.90;;;;;;5032365;28;20029;-72
2023/04/12 10:04:44;;;;;;;16.23;5.47;;;8.30;99.90;;;;;;5031361;28;20049;-70
2023/04/12 10:07:10;;;;;;;10.48;5.40;;;8.40;99.90;;;;;;5028719;28;20040;-70
2023/04/12 10:09:40;;;;;;;10.55;4.85;;;8.40;99.90;;;;;;5028692;28;20049;-74
2023/04/12 10:12:06;;;;;;;13.98;5.40;;;8.40;99.90;;;;;;5029233;28;20030;-71
2023/04/12 10:14:32;;;;;;;12.55;4.45;;;8.40;99.90;;;;;;5028585;28;20080;-72
2023/04/12 10:17:00;;;;;;;13.40;4.68;;;8.50;99.90;;;;;;5027139;28;20033;-76
2023/04/12 10:19:28;;;;;;;15.68;4.93;;;8.40;99.90;;;;;;5027419;28;20043;-71
2023/04/12 10:21:56;;;;;;;11.63;4.88;;;8.50;99.90;;;;;;5030149;28;20030;-73
2023/04/12 10:24:27;;;;;;;6.10;2.75;;;8.50;99.90;;;;;;5030983;28;20040;-71
2023/04/12 10:26:54;;;;;;;7.93;4.22;;;8.50;99.90;;;;;;5031395;28;20036;-73
2023/04/12 10:29:24;;;;;;;14.90;4.72;;;8.50;99.90;;;;;;5032069;28;21385;-70
2023/04/12 10:31:50;;;;;;;12.30;4.07;;;8.40;99.90;;;;;;5030811;28;20351;-73
2023/04/12 10:34:16;;;;;;;11.98;4.93;;;8.40;99.90;;;;;;5031920;28;20037;-73
2023/04/12 10:36:55;;;;;;;9.45;4.75;;;8.40;99.90;;;;;;5031499;28;20027;-75
2023/04/12 10:39:38;;;;;;;10.35;4.38;;;8.40;99.90;;;;;;5029435;28;20066;-71
2023/04/12 10:42:21;;;;;;;10.27;4.63;;;8.50;99.90;;;;;;5027696;28;20030;-72
2023/04/12 10:44:47;;;;;;;11.52;5.80;;;8.50;99.90;;;;;;5023937;28;20038;-74
2023/04/12 10:47:13;;;;;;;11.48;4.32;;;8.50;99.90;;;;;;5028427;28;20037;-71
2023/04/12 10:49:39;;;;;;;12.25;4.68;;;8.50;99.90;;;;;;5027893;28;20022;-72
2023/04/12 10:52:08;;;;;;;8.50;4.70;;;8.40;99.90;;;;;;5026989;28;20022;-73
2023/04/12 10:54:34;;;;;;;12.18;5.82;;;8.50;99.90;;;;;;5030003;28;20030;-72
2023/04/12 10:57:01;;;;;;;11.60;4.55;;;8.50;99.90;;;;;;5031629;28;20022;-70
2023/04/12 10:59:55;;;;;;;14.05;5.40;;;8.40;99.90;;;;;;5030264;28;20099;-70
2023/04/12 11:02:21;;;;;;;8.93;3.25;;;8.40;99.90;;;;;;5038995;28;20030;-71
2023/04/12 11:05:04;;;;;;;11.50;4.78;;;8.50;99.90;;;;;;5034674;28;20036;-69
2023/04/12 11:07:43;;;;;;;9.20;4.20;;;8.40;99.90;;;;;;5031003;28;20127;-70
2023/04/12 11:10:18;;;;;;;12.93;5.18;;;8.40;99.90;;;;;;5032702;28;20041;-69
2023/04/12 11:12:56;;;;;;;13.20;4.75;;;8.40;99.90;;;;;;5033181;28;20383;-70
2023/04/12 11:15:25;;;;;;;13.13;5.47;;;8.40;99.90;;;;;;5035225;28;20040;-70
2023/04/12 11:17:56;;;;;;;10.50;4.10;;;8.30;99.90;;;;;;5033157;28;20025;-71
2023/04/12 11:20:21;;;;;;;15.55;5.40;;;8.30;99.90;;;;;;5033355;28;20052;-70
2023/04/12 11:22:50;;;;;;;12.23;5.75;;;8.30;99.90;;;;;;5032976;28;20475;-72
2023/04/12 11:25:16;;;;;;;10.45;4.65;;;8.40;99.90;;;;;;5033497;28;20487;-71
2023/04/12 11:27:49;;;;;;;11.07;4.38;;;8.40;99.90;;;;;;5034809;28;20093;-70
2023/04/12 11:30:15;;;;;;;8.00;3.03;;;8.40;99.90;;;;;;5034716;28;20485;-70
2023/04/12 11:32:44;;;;;;;10.32;4.93;;;8.40;99.90;;;;;;5034752;28;20022;-70
2023/04/12 11:35:10;;;;;;;10.40;4.53;;;8.40;99.90;;;;;;5032416;28;20029;-70
2023/04/12 11:37:37;;;;;;;10.40;4.85;;;8.40;99.90;;;;;;5032398;28;20102;-72
2023/04/12 11:40:06;;;;;;;10.65;4.20;;;8.40;99.90;;;;;;5033135;28;20034;-72
2023/04/12 11:42:32;;;;;;;11.05;4.07;;;8.40;99.90;;;;;;5028651;28;20034;-73
2023/04/12 11:44:58;;;;;;;11.32;5.78;;;8.40;99.90;;;;;;5031979;28;20033;-70
2023/04/12 11:47:25;;;;;;;10.25;5.40;;;8.30;99.90;;;;;;5033693;28;20032;-70
2023/04/12 11:49:58;;;;;;;15.13;6.28;;;8.40;99.90;;;;;;5028468;28;20038;-70
2023/04/12 11:52:32;;;;;;;10.68;5.30;;;8.40;99.90;;;;;;5029984;28;20041;-71
2023/04/12 11:55:03;;;;;;;;;;;8.40;99.90;;;;;;5031472;28;20034;-70
2023/04/12 11:57:30;;;;;;;10.35;4.30;;;8.40;99.90;;;;;;5033036;28;20366;-74
2023/04/12 11:59:58;;;;;;;9.95;4.40;;;8.40;99.90;;;;;;5032131;28;20026;-73
2023/04/12 12:02:25;;;;;;;10.40;5.50;;;8.40;99.90;;;;;;5028958;28;20018;-73
2023/04/12 12:04:51;;;;;;;12.18;4.93;;;8.40;99.90;;;;;;5032399;28;21370;-71
2023/04/12 12:07:19;;;;;;;11.02;5.05;;;8.40;99.90;;;;;;5031202;28;20116;-73
2023/04/12 12:09:45;;;;;;;13.95;5.45;;;8.40;99.90;;;;;;5030606;28;20045;-73
2023/04/12 12:12:12;;;;;;;13.40;5.47;;;8.40;99.90;;;;;;5031666;28;20029;-71
2023/04/12 12:14:39;;;;;;;13.55;6.18;;;8.40;99.90;;;;;;5027399;28;20036;-73
2023/04/12 12:17:14;;;;;;;18.20;8.30;;;8.40;99.90;;;;;;5031223;28;20048;-71
2023/04/12 12:19:42;;;;;;;23.35;8.98;;;8.30;99.90;;;;;;5031942;28;20041;-72
2023/04/12 12:22:11;;;;;;;17.63;10.02;;;8.40;99.90;;;;;;5032543;28;20022;-72
2023/04/12 12:24:39;;;;;;;22.13;10.35;;;8.40;99.90;;;;;;5032901;28;20053;-72
2023/04/12 12:27:05;;;;;;;18.08;9.50;;;8.40;99.90;;;;;;5027462;28;20037;-75
2023/04/12 12:29:37;;;;;;;21.65;9.20;;;8.40;99.90;;;;;;5032112;28;20032;-75
2023/04/12 12:32:13;;;;;;;17.98;9.60;;;8.50;99.90;;;;;;5031346;28;20030;-72
2023/04/12 12:34:40;;;;;;;21.75;10.43;;;8.60;99.90;;;;;;5032366;28;20387;-74
2023/04/12 12:37:12;;;;;;;32.83;12.70;;;8.60;99.90;;;;;;5032372;28;20030;-74
2023/04/12 12:39:38;;;;;;;21.25;11.15;;;8.70;99.90;;;;;;5032882;28;20097;-73
2023/04/12 12:42:05;;;;;;;23.13;12.30;;;8.70;99.90;;;;;;5031320;28;20145;-74
2023/04/12 12:44:31;;;;;;;20.13;11.40;;;8.80;99.90;;;;;;5031305;28;20040;-74
2023/04/12 12:47:01;;;;;;;20.45;11.00;;;8.90;99.90;;;;;;5032094;28;20024;-73
2023/04/12 12:49:27;;;;;;;16.60;10.07;;;9.10;99.90;;;;;;5033148;28;20022;-73
2023/04/12 12:51:52;;;;;;;16.40;10.60;;;9.20;99.90;;;;;;5032591;28;20065;-73